Time;durP1;ratioP1;P1;durP2;ratioP2;P2;SDS_P1;SDS_P2;PMS_P1;PMS_P2;Temp;Humidity;BMP_temperature;BMP_pressure;BME280_temperature;BME280_humidity;BME280_pressure;Samples;Min_cycle;Max_cycle;Signal;HPM_P1;HPM_P2
2021/01/29 00:00:37;;;;;;;9.13;3.57;;;10.80;99.90;;;;;;5118031;28;20261;-86
2021/01/29 00:03:06;;;;;;;12.73;4.10;;;10.80;99.90;;;;;;5118102;28;20265;-86
2021/01/29 00:05:45;;;;;;;8.20;3.53;;;10.80;99.90;;;;;;5117869;28;20176;-86
2021/01/29 00:08:11;;;;;;;10.50;4.13;;;10.90;99.90;;;;;;5117916;28;20193;-86
2021/01/29 00:10:37;;;;;;;10.70;3.40;;;10.80;99.90;;;;;;5097397;27;605158;-86
2021/01/29 00:13:04;;;;;;;9.50;4.07;;;10.90;99.90;;;;;;5118838;27;20203;-87
2021/01/29 00:15:30;;;;;;;14.67;4.30;;;10.80;99.90;;;;;;5118979;27;20174;-86
2021/01/29 00:17:57;;;;;;;9.93;4.60;;;10.80;99.90;;;;;;5119185;27;20655;-86
2021/01/29 00:20:26;;;;;;;12.80;4.80;;;10.80;99.90;;;;;;5118827;27;20280;-85
2021/01/29 00:22:52;;;;;;;10.77;4.03;;;10.80;99.90;;;;;;5119044;27;20523;-86
2021/01/29 00:25:21;;;;;;;12.03;4.50;;;10.80;99.90;;;;;;5118848;27;20196;-85
2021/01/29 00:27:48;;;;;;;9.73;4.30;;;10.80;99.90;;;;;;5118572;27;20174;-85
2021/01/29 00:30:16;;;;;;;8.10;4.07;;;10.80;99.90;;;;;;5113069;28;20650;-85
2021/01/29 00:32:42;;;;;;;8.97;3.60;;;10.80;99.90;;;;;;5087081;28;20262;-85
2021/01/29 00:35:09;;;;;;;10.27;4.00;;;10.80;99.90;;;;;;5077859;28;20167;-83
2021/01/29 00:37:34;;;;;;;7.63;3.37;;;10.80;99.90;;;;;;5094574;28;20538;-84
2021/01/29 00:40:00;;;;;;;10.80;4.13;;;10.90;99.90;;;;;;5077987;28;20183;-84
2021/01/29 00:42:26;;;;;;;8.83;3.77;;;10.90;99.90;;;;;;5080594;28;20163;-85
2021/01/29 00:44:51;;;;;;;11.20;3.73;;;11.10;99.90;;;;;;5077714;28;20175;-85
2021/01/29 00:47:17;;;;;;;6.93;3.47;;;10.90;99.90;;;;;;5077792;28;20176;-85
2021/01/29 00:49:43;;;;;;;8.20;3.50;;;10.90;99.90;;;;;;5077592;28;20262;-85
2021/01/29 00:52:08;;;;;;;8.40;3.37;;;10.90;99.90;;;;;;5077810;28;20176;-85
2021/01/29 00:54:34;;;;;;;6.90;3.20;;;10.90;99.90;;;;;;5077484;28;20176;-85
2021/01/29 00:57:00;;;;;;;7.37;3.20;;;10.90;99.90;;;;;;5077274;28;20183;-84
2021/01/29 00:59:25;;;;;;;4.67;2.60;;;11.00;99.90;;;;;;5077060;28;20332;-86
2021/01/29 01:01:51;;;;;;;5.23;2.83;;;11.00;99.90;;;;;;5077118;28;20314;-85
2021/01/29 01:04:16;;;;;;;6.87;3.00;;;11.00;99.90;;;;;;5077199;28;20206;-84
2021/01/29 01:06:42;;;;;;;7.03;2.80;;;11.10;99.90;;;;;;5077066;28;20176;-85
2021/01/29 01:09:08;;;;;;;6.33;3.07;;;11.10;99.90;;;;;;5077012;28;20179;-84
2021/01/29 01:11:34;;;;;;;6.80;2.70;;;11.00;99.90;;;;;;5076858;28;20183;-85
2021/01/29 01:14:00;;;;;;;6.27;3.10;;;11.10;99.90;;;;;;5077155;28;20274;-85
2021/01/29 01:16:28;;;;;;;5.23;2.77;;;11.10;99.90;;;;;;5077122;28;20176;-85
2021/01/29 01:18:54;;;;;;;5.90;2.40;;;11.10;99.90;;;;;;5076960;28;20211;-85
2021/01/29 01:21:20;;;;;;;4.73;2.30;;;11.10;99.90;;;;;;5076740;28;20203;-84
2021/01/29 01:23:46;;;;;;;5.37;2.30;;;11.10;99.90;;;;;;5077200;28;20186;-85
2021/01/29 01:26:11;;;;;;;4.10;2.13;;;11.10;99.90;;;;;;5076697;28;20172;-85
2021/01/29 01:28:37;;;;;;;5.37;2.23;;;11.10;99.90;;;;;;5076705;28;20214;-83
2021/01/29 01:31:02;;;;;;;6.80;1.90;;;11.10;99.90;;;;;;5076680;28;20191;-84
2021/01/29 01:33:28;;;;;;;3.70;2.27;;;11.20;99.90;;;;;;5076564;28;20182;-84
2021/01/29 01:35:54;;;;;;;4.03;2.30;;;11.10;99.90;;;;;;5076396;28;20179;-83
2021/01/29 01:38:19;;;;;;;4.27;2.10;;;11.10;99.90;;;;;;5076476;28;20212;-86
2021/01/29 01:40:46;;;;;;;3.97;2.20;;;11.20;99.90;;;;;;5094297;28;20175;-84
2021/01/29 01:43:12;;;;;;;4.20;2.50;;;11.10;99.90;;;;;;5075451;28;20183;-84
2021/01/29 01:45:58;;;;;;;3.87;2.13;;;11.20;99.90;;;;;;5076423;28;20221;-85
2021/01/29 01:48:41;;;;;;;4.90;2.10;;;11.20;99.90;;;;;;5077113;28;20210;-84
2021/01/29 01:51:12;;;;;;;4.43;2.47;;;11.20;99.90;;;;;;5076669;28;20195;-84
2021/01/29 01:53:44;;;;;;;3.57;2.23;;;11.10;99.90;;;;;;5076445;28;20663;-85
2021/01/29 01:56:28;;;;;;;3.97;1.97;;;11.20;99.90;;;;;;5076784;28;20540;-85
2021/01/29 01:58:59;;;;;;;3.70;2.00;;;11.40;99.90;;;;;;5092910;28;20233;-86
2021/01/29 02:01:24;;;;;;;3.37;1.80;;;11.50;99.90;;;;;;5076029;28;20167;-84
2021/01/29 02:03:54;;;;;;;3.67;2.00;;;11.50;99.90;;;;;;5076025;28;20201;-85
2021/01/29 02:06:21;;;;;;;4.47;2.23;;;11.40;99.90;;;;;;5075956;28;20160;-84
2021/01/29 02:08:47;;;;;;;3.67;1.90;;;11.40;99.90;;;;;;5075721;28;20258;-83
2021/01/29 02:11:17;;;;;;;2.60;2.00;;;11.60;99.90;;;;;;5075280;28;20215;-84
2021/01/29 02:13:42;;;;;;;3.70;2.00;;;11.40;99.90;;;;;;5075670;28;20176;-84
2021/01/29 02:16:48;;;;;;;4.03;1.90;;;11.50;99.90;;;;;;5075855;28;20220;-84
2021/01/29 02:19:39;;;;;;;4.07;2.13;;;11.60;99.90;;;;;;4995613;28;20211;-84
2021/01/29 02:22:34;;;;;;;2.97;2.00;;;11.60;99.90;;;;;;5071689;28;20275;-84
2021/01/29 02:25:43;;;;;;;4.87;2.30;;;11.60;99.90;;;;;;5048809;28;20195;-85
2021/01/29 02:28:38;;;;;;;3.87;1.50;;;11.60;99.90;;;;;;5092602;28;20620;-84
2021/01/29 02:31:38;;;;;;;2.03;1.63;;;11.70;99.90;;;;;;5062096;28;20194;-84
2021/01/29 02:34:34;;;;;;;2.07;1.37;;;11.60;99.90;;;;;;5068354;28;20176;-84
2021/01/29 02:37:31;;;;;;;1.93;1.30;;;11.70;99.90;;;;;;5075501;28;20207;-84
2021/01/29 02:40:08;;;;;;;2.03;1.37;;;11.70;99.90;;;;;;5091970;28;20636;-84
2021/01/29 02:42:55;;;;;;;2.23;1.23;;;12.00;99.90;;;;;;5092274;28;20186;-85
2021/01/29 02:45:30;;;;;;;2.70;1.20;;;11.80;99.90;;;;;;5075519;28;20662;-83
2021/01/29 02:48:18;;;;;;;1.10;1.00;;;11.90;99.90;;;;;;5075278;28;20171;-85
2021/01/29 02:50:51;;;;;;;2.17;1.00;;;11.80;99.90;;;;;;5091721;28;20224;-83
2021/01/29 02:53:24;;;;;;;1.90;1.10;;;11.70;99.90;;;;;;5091152;28;20179;-84
2021/01/29 02:56:21;;;;;;;1.63;0.90;;;11.80;99.90;;;;;;5091903;28;20175;-84
2021/01/29 02:58:59;;;;;;;1.30;0.80;;;11.80;99.90;;;;;;5073691;28;20559;-84
2021/01/29 03:01:45;;;;;;;1.50;0.90;;;11.80;99.90;;;;;;5075123;28;20234;-83
2021/01/29 03:04:32;;;;;;;1.20;0.80;;;11.80;99.90;;;;;;5075233;28;20180;-83
2021/01/29 03:07:25;;;;;;;0.80;0.50;;;11.80;99.90;;;;;;5075249;28;20178;-83
2021/01/29 03:10:13;;;;;;;1.27;0.70;;;11.70;99.90;;;;;;5070167;28;20199;-84
2021/01/29 03:12:50;;;;;;;0.97;0.53;;;11.70;99.90;;;;;;5092852;28;20164;-84
2021/01/29 03:15:32;;;;;;;0.43;0.40;;;11.70;99.90;;;;;;5075346;28;20188;-84
2021/01/29 03:18:04;;;;;;;1.33;0.63;;;11.70;99.90;;;;;;5075047;28;20293;-84
2021/01/29 03:20:36;;;;;;;1.30;0.60;;;11.70;99.90;;;;;;5074808;28;20252;-83
2021/01/29 03:23:11;;;;;;;1.23;0.50;;;11.70;99.90;;;;;;5092299;28;20643;-83
2021/01/29 03:25:43;;;;;;;1.10;0.60;;;11.80;99.90;;;;;;5078808;28;20179;-84
2021/01/29 03:28:14;;;;;;;1.07;0.50;;;11.70;99.90;;;;;;5079202;28;20167;-85
2021/01/29 03:30:45;;;;;;;1.40;0.70;;;11.70;99.90;;;;;;5078824;28;20626;-83
2021/01/29 03:33:12;;;;;;;0.67;0.60;;;11.70;99.90;;;;;;5078940;28;20274;-84
2021/01/29 03:35:42;;;;;;;0.50;0.50;;;11.70;99.90;;;;;;5078814;28;20168;-84
2021/01/29 03:38:27;;;;;;;0.90;0.53;;;11.60;99.90;;;;;;5078801;28;20199;-85
2021/01/29 03:41:12;;;;;;;0.67;0.50;;;11.70;99.90;;;;;;5078510;28;20581;-84
2021/01/29 03:43:59;;;;;;;1.13;0.50;;;11.70;99.90;;;;;;5078817;28;20168;-84
2021/01/29 03:46:50;;;;;;;1.40;0.60;;;11.60;99.90;;;;;;5078905;28;20221;-85
2021/01/29 03:49:20;;;;;;;1.73;0.60;;;11.50;99.90;;;;;;5078824;28;20172;-85
2021/01/29 03:52:07;;;;;;;0.90;0.60;;;11.50;99.90;;;;;;5095400;28;20254;-85
2021/01/29 03:55:02;;;;;;;1.27;0.60;;;11.40;99.90;;;;;;5095658;28;20179;-84
2021/01/29 03:57:40;;;;;;;1.83;0.70;;;11.40;99.90;;;;;;5040485;28;20186;-84
2021/01/29 04:00:19;;;;;;;1.87;0.70;;;11.40;99.90;;;;;;5078462;28;20256;-84
2021/01/29 04:03:17;;;;;;;2.23;1.00;;;11.50;99.90;;;;;;5096534;28;20174;-84
2021/01/29 04:05:58;;;;;;;1.80;1.00;;;11.40;99.90;;;;;;5094614;28;20721;-84
2021/01/29 04:08:39;;;;;;;1.77;0.80;;;11.40;99.90;;;;;;5078394;28;20224;-85
2021/01/29 04:11:08;;;;;;;2.47;1.30;;;11.40;99.90;;;;;;5095263;28;20193;-84
2021/01/29 04:13:41;;;;;;;2.37;1.00;;;11.30;99.90;;;;;;5078285;28;20168;-84
2021/01/29 04:16:13;;;;;;;2.47;0.90;;;11.40;99.90;;;;;;5078360;28;20171;-85
2021/01/29 04:18:47;;;;;;;4.43;1.40;;;11.40;99.90;;;;;;5077835;28;20578;-84
2021/01/29 04:21:25;;;;;;;3.63;1.03;;;11.40;99.90;;;;;;5078256;28;20202;-86
2021/01/29 04:24:09;;;;;;;3.40;1.63;;;11.40;99.90;;;;;;5078307;28;20206;-85
2021/01/29 04:26:44;;;;;;;4.90;1.50;;;11.40;99.90;;;;;;5078209;28;20174;-84
2021/01/29 04:29:14;;;;;;;4.50;1.50;;;11.30;99.90;;;;;;5095507;28;20199;-86
2021/01/29 04:31:42;;;;;;;4.23;1.80;;;11.50;99.90;;;;;;5079128;28;20203;-86
2021/01/29 04:34:18;;;;;;;5.13;1.50;;;11.30;99.90;;;;;;5095710;28;20225;-85
2021/01/29 04:36:47;;;;;;;7.87;2.10;;;11.30;99.90;;;;;;5077979;28;20179;-88
2021/01/29 04:39:22;;;;;;;3.60;1.63;;;11.30;99.90;;;;;;5077927;28;20203;-85
2021/01/29 04:42:07;;;;;;;5.17;1.80;;;11.20;99.90;;;;;;5078141;28;20716;-86
2021/01/29 04:44:41;;;;;;;6.17;1.80;;;11.20;99.90;;;;;;5094466;28;20175;-86
2021/01/29 04:47:16;;;;;;;4.93;1.90;;;11.20;99.90;;;;;;5094543;28;20262;-85
2021/01/29 04:50:02;;;;;;;5.17;1.50;;;11.20;99.90;;;;;;5077306;28;20163;-85
2021/01/29 04:52:58;;;;;;;9.80;1.80;;;11.20;99.90;;;;;;5094722;28;20175;-86
2021/01/29 04:55:51;;;;;;;8.77;1.80;;;11.10;99.90;;;;;;5094441;28;20171;-85
2021/01/29 04:58:18;;;;;;;5.17;1.90;;;11.00;99.90;;;;;;5077675;28;20684;-84
2021/01/29 05:01:37;;;;;;;8.40;1.77;;;10.90;99.90;;;;;;5095385;28;20302;-85
2021/01/29 05:04:40;;;;;;;12.70;1.93;;;10.90;99.90;;;;;;4977219;28;20175;-86
2021/01/29 05:07:43;;;;;;;12.27;2.60;;;10.80;99.90;;;;;;5077424;28;20163;-85
2021/01/29 05:10:46;;;;;;;6.03;1.87;;;10.70;99.90;;;;;;5095731;28;20206;-83
2021/01/29 05:13:33;;;;;;;6.93;1.40;;;10.70;99.90;;;;;;5077842;28;20171;-85
2021/01/29 05:16:34;;;;;;;8.50;2.00;;;10.60;99.90;;;;;;5094739;28;20628;-85
2021/01/29 05:19:24;;;;;;;9.30;2.23;;;10.60;99.90;;;;;;5076869;28;20626;-86
2021/01/29 05:22:34;;;;;;;7.83;2.37;;;10.70;99.90;;;;;;5078132;28;20202;-85
2021/01/29 05:25:16;;;;;;;10.03;2.70;;;10.70;99.90;;;;;;4994471;28;20217;-84
2021/01/29 05:27:59;;;;;;;12.17;3.10;;;10.80;99.90;;;;;;4995968;28;20175;-85
2021/01/29 05:30:49;;;;;;;14.90;3.27;;;10.80;99.90;;;;;;5051136;28;20187;-84
2021/01/29 05:33:53;;;;;;;13.87;3.83;;;10.90;99.90;;;;;;5076671;28;20178;-85
2021/01/29 05:37:14;;;;;;;13.17;3.30;;;10.90;99.90;;;;;;5076636;28;20228;-85
2021/01/29 05:40:01;;;;;;;7.90;2.87;;;11.00;99.90;;;;;;4976592;28;20215;-85
2021/01/29 05:42:55;;;;;;;14.00;2.70;;;11.00;99.90;;;;;;5070309;28;20651;-86
2021/01/29 05:45:39;;;;;;;18.73;3.40;;;11.10;99.90;;;;;;5092966;28;20199;-84
2021/01/29 05:48:42;;;;;;;11.50;3.27;;;11.20;99.90;;;;;;5093439;28;20237;-86
2021/01/29 05:51:56;;;;;;;14.13;3.30;;;11.10;99.90;;;;;;5076108;28;20635;-86
2021/01/29 05:54:53;;;;;;;18.17;4.00;;;11.20;99.90;;;;;;5032940;28;20202;-86
2021/01/29 05:57:46;;;;;;;19.13;3.60;;;11.30;99.90;;;;;;5076277;28;20262;-84
2021/01/29 06:00:56;;;;;;;16.53;4.03;;;11.30;99.90;;;;;;5092908;28;20542;-85
2021/01/29 06:03:50;;;;;;;12.67;2.77;;;11.30;99.90;;;;;;5050787;28;20179;-85
2021/01/29 06:06:36;;;;;;;18.20;4.03;;;11.30;99.90;;;;;;5092371;28;20216;-86
2021/01/29 06:09:28;;;;;;;17.73;5.03;;;11.30;99.90;;;;;;5093786;28;20662;-85
2021/01/29 06:12:36;;;;;;;15.27;3.87;;;11.30;99.90;;;;;;5075803;28;20207;-87
2021/01/29 06:15:27;;;;;;;11.17;3.13;;;11.30;99.90;;;;;;5075582;28;20598;-86
2021/01/29 06:18:11;;;;;;;18.57;4.30;;;11.20;99.90;;;;;;5075849;28;20710;-85
2021/01/29 06:20:52;;;;;;;22.80;4.67;;;11.40;99.90;;;;;;5075844;28;20282;-84
2021/01/29 06:23:45;;;;;;;18.97;4.20;;;11.30;99.90;;;;;;5092609;28;20328;-84
2021/01/29 06:26:38;;;;;;;17.73;4.70;;;11.20;99.90;;;;;;5092497;28;20213;-84
2021/01/29 06:29:27;;;;;;;16.40;4.10;;;11.20;99.90;;;;;;5075666;28;20627;-84
2021/01/29 06:32:45;;;;;;;17.33;4.50;;;11.20;99.90;;;;;;5075832;28;20172;-85
2021/01/29 06:35:13;;;;;;;19.30;5.00;;;11.30;99.90;;;;;;5075490;28;20202;-85
2021/01/29 06:38:03;;;;;;;18.60;4.17;;;11.20;99.90;;;;;;5092297;28;20637;-86
2021/01/29 06:40:44;;;;;;;18.10;4.83;;;11.10;99.90;;;;;;5093993;28;20206;-86
2021/01/29 06:43:37;;;;;;;17.17;3.90;;;11.10;99.90;;;;;;5123999;27;20178;-88
2021/01/29 06:46:03;;;;;;;16.53;4.10;;;11.10;99.90;;;;;;5115057;27;20182;-85
2021/01/29 06:49:12;;;;;;;17.80;4.20;;;11.00;99.90;;;;;;5115080;27;20189;-85
2021/01/29 06:52:15;;;;;;;20.87;4.17;;;11.00;99.90;;;;;;5116080;27;20166;-87
2021/01/29 06:55:11;;;;;;;20.70;5.50;;;11.00;99.90;;;;;;5116561;28;20185;-87
2021/01/29 06:58:03;;;;;;;14.87;3.77;;;10.90;99.90;;;;;;5115250;28;20174;-85
2021/01/29 07:00:38;;;;;;;17.40;4.63;;;11.00;99.90;;;;;;5115810;27;20171;-86
2021/01/29 07:03:42;;;;;;;24.73;4.40;;;10.90;99.90;;;;;;5115147;28;20168;-86
2021/01/29 07:06:28;;;;;;;17.93;5.07;;;10.80;99.90;;;;;;5115214;28;20183;-86
2021/01/29 07:09:18;;;;;;;22.03;4.97;;;10.80;99.90;;;;;;5116606;28;20219;-84
2021/01/29 07:11:44;;;;;;;17.53;4.87;;;10.80;99.90;;;;;;5116324;28;20229;-86
2021/01/29 07:14:36;;;;;;;22.57;5.03;;;10.70;99.90;;;;;;5116659;28;20197;-87
2021/01/29 07:17:32;;;;;;;22.33;5.63;;;10.70;99.90;;;;;;5116116;27;20175;-87
2021/01/29 07:20:02;;;;;;;24.70;4.87;;;10.80;99.90;;;;;;5115412;28;20224;-87
2021/01/29 07:23:04;;;;;;;22.87;5.23;;;10.80;99.90;;;;;;5115857;28;20184;-87
2021/01/29 07:25:52;;;;;;;20.83;5.80;;;10.80;99.90;;;;;;5115901;28;20617;-86
2021/01/29 07:28:38;;;;;;;21.67;5.90;;;10.60;99.90;;;;;;5114372;28;20613;-87
2021/01/29 07:31:29;;;;;;;23.27;6.97;;;10.60;99.90;;;;;;5115623;28;20212;-87
2021/01/29 07:34:18;;;;;;;24.87;5.70;;;10.60;99.90;;;;;;5115530;28;20174;-87
2021/01/29 07:36:44;;;;;;;25.70;5.80;;;10.60;99.90;;;;;;5116184;28;20170;-88
2021/01/29 07:39:22;;;;;;;21.37;5.90;;;10.90;99.90;;;;;;5115553;28;20290;-87
2021/01/29 07:41:56;;;;;;;26.70;5.83;;;10.60;99.90;;;;;;5115696;28;20235;-86
2021/01/29 07:44:40;;;;;;;27.20;6.60;;;10.60;99.90;;;;;;5115830;28;20182;-88
2021/01/29 07:47:11;;;;;;;27.30;5.83;;;10.60;99.90;;;;;;5082267;28;20171;-89
2021/01/29 07:49:40;;;;;;;17.77;4.57;;;10.70;99.90;;;;;;5075467;28;20180;-89
2021/01/29 07:52:50;;;;;;;32.77;6.30;;;10.60;99.90;;;;;;5074719;28;20190;-89
2021/01/29 07:55:28;;;;;;;24.60;6.43;;;10.50;99.90;;;;;;5093304;28;20168;-86
2021/01/29 07:58:02;;;;;;;26.33;6.60;;;10.60;99.90;;;;;;5085780;28;20178;-89
2021/01/29 08:00:44;;;;;;;21.20;5.97;;;10.50;99.90;;;;;;5098295;28;20228;-86
2021/01/29 08:03:30;;;;;;;29.30;5.83;;;10.60;99.90;;;;;;5091646;28;20167;-89
2021/01/29 08:06:14;;;;;;;24.60;6.00;;;10.50;99.90;;;;;;5076478;28;20198;-85
2021/01/29 08:09:08;;;;;;;32.37;7.67;;;10.60;99.90;;;;;;5085924;28;20162;-87
2021/01/29 08:11:38;;;;;;;21.43;5.60;;;10.60;99.90;;;;;;5077738;28;20219;-90
2021/01/29 08:14:37;;;;;;;20.37;4.80;;;10.60;99.90;;;;;;5112184;28;20199;-88
2021/01/29 08:17:27;;;;;;;21.17;5.47;;;10.60;99.90;;;;;;5069434;28;20180;-89
2021/01/29 08:20:11;;;;;;;29.40;6.73;;;10.60;99.90;;;;;;5096753;28;20248;-89
2021/01/29 08:23:00;;;;;;;20.10;5.73;;;10.60;99.90;;;;;;5115324;28;20172;-87
2021/01/29 08:25:35;;;;;;;28.23;6.77;;;10.70;99.90;;;;;;5090715;28;20239;-87
2021/01/29 08:28:28;;;;;;;23.50;6.13;;;10.70;99.90;;;;;;5115761;28;20174;-87
2021/01/29 08:31:24;;;;;;;31.53;6.37;;;10.80;99.90;;;;;;5116756;28;20164;-88
2021/01/29 08:34:28;;;;;;;28.87;6.40;;;10.80;99.90;;;;;;5104292;28;20241;-88
2021/01/29 08:37:28;;;;;;;29.17;6.27;;;10.80;99.90;;;;;;5099479;28;20555;-87
2021/01/29 08:40:21;;;;;;;25.53;6.63;;;10.80;99.90;;;;;;5100281;28;20202;-87
2021/01/29 08:43:04;;;;;;;29.10;7.37;;;10.80;99.90;;;;;;5117642;28;20162;-89
2021/01/29 08:45:49;;;;;;;27.50;5.67;;;10.80;99.90;;;;;;5098965;28;20179;-88
2021/01/29 08:48:48;;;;;;;25.80;6.33;;;10.80;99.90;;;;;;5097695;28;20179;-87
2021/01/29 08:51:33;;;;;;;22.47;5.80;;;10.90;99.90;;;;;;5115204;28;20168;-87
2021/01/29 08:54:07;;;;;;;29.33;6.20;;;10.90;99.90;;;;;;5096907;28;20182;-85
2021/01/29 08:56:53;;;;;;;27.23;6.60;;;10.90;99.90;;;;;;5097699;28;20177;-89
2021/01/29 08:59:23;;;;;;;23.80;5.40;;;11.00;99.90;;;;;;5097650;28;20311;-87
2021/01/29 09:01:51;;;;;;;30.03;6.33;;;10.90;99.90;;;;;;5096239;28;20205;-86
2021/01/29 09:04:27;;;;;;;26.63;6.63;;;11.00;99.90;;;;;;5079301;28;20179;-87
2021/01/29 09:06:56;;;;;;;27.37;6.27;;;11.00;99.90;;;;;;5097311;28;20289;-86
2021/01/29 09:09:25;;;;;;;28.77;6.07;;;11.00;99.90;;;;;;5096620;28;20257;-88
2021/01/29 09:11:54;;;;;;;22.67;5.60;;;11.10;99.90;;;;;;5096740;28;20179;-87
2021/01/29 09:14:35;;;;;;;17.80;5.00;;;11.10;99.90;;;;;;5093880;28;20650;-87
2021/01/29 09:17:12;;;;;;;20.57;4.50;;;11.00;99.90;;;;;;5102454;28;20663;-88
2021/01/29 09:19:42;;;;;;;17.83;4.57;;;10.90;99.90;;;;;;5096839;28;20210;-87
2021/01/29 09:22:38;;;;;;;18.67;4.77;;;11.00;99.90;;;;;;5096627;28;20190;-88
2021/01/29 09:25:30;;;;;;;23.33;5.57;;;11.00;99.90;;;;;;5096704;28;20179;-90
2021/01/29 09:28:04;;;;;;;22.83;7.10;;;11.00;99.90;;;;;;5083500;28;20186;-88
2021/01/29 09:30:56;;;;;;;21.83;5.33;;;11.00;99.90;;;;;;5096356;28;20203;-91
2021/01/29 09:33:31;;;;;;;21.10;4.77;;;11.00;99.90;;;;;;5096412;28;20198;-88
2021/01/29 09:36:18;;;;;;;15.00;4.40;;;11.00;99.90;;;;;;5096855;28;20269;-87
2021/01/29 09:38:58;;;;;;;20.13;4.53;;;11.00;99.90;;;;;;5088239;28;20206;-88
2021/01/29 09:41:40;;;;;;;21.60;5.53;;;11.00;99.90;;;;;;5093170;28;20202;-88
2021/01/29 09:44:23;;;;;;;24.03;6.17;;;11.00;99.90;;;;;;5076012;28;20164;-88
2021/01/29 09:46:54;;;;;;;24.50;6.07;;;10.90;99.90;;;;;;5075708;28;20231;-87
2021/01/29 09:49:36;;;;;;;24.23;6.03;;;11.10;99.90;;;;;;5075525;28;20728;-89
2021/01/29 09:52:24;;;;;;;22.77;5.43;;;11.00;99.90;;;;;;5075347;28;20186;-89
2021/01/29 09:55:14;;;;;;;25.70;5.20;;;11.10;99.90;;;;;;5076010;28;20232;-90
2021/01/29 09:58:26;;;;;;;19.33;5.30;;;11.20;99.90;;;;;;5116788;27;20174;-88
2021/01/29 10:01:14;;;;;;;17.80;4.43;;;11.20;99.90;;;;;;5082171;28;20194;-89
2021/01/29 10:03:58;;;;;;;27.07;5.20;;;11.30;99.90;;;;;;5113071;28;20270;-89
2021/01/29 10:06:30;;;;;;;22.57;6.10;;;11.20;99.90;;;;;;5113139;28;20175;-89
2021/01/29 10:09:00;;;;;;;27.53;5.97;;;11.30;99.90;;;;;;5104794;28;20163;-89
2021/01/29 10:11:56;;;;;;;21.77;5.23;;;11.20;99.90;;;;;;5096757;28;20665;-89
2021/01/29 10:14:30;;;;;;;35.50;7.07;;;11.20;99.90;;;;;;5096495;28;20185;-87
2021/01/29 10:17:18;;;;;;;26.23;5.27;;;11.10;99.90;;;;;;5096090;28;20170;-89
2021/01/29 10:19:53;;;;;;;28.37;6.33;;;11.20;99.90;;;;;;5054758;28;20241;-89
2021/01/29 10:23:00;;;;;;;24.43;6.37;;;11.10;99.90;;;;;;5096164;28;20174;-91
2021/01/29 10:26:05;;;;;;;31.93;6.67;;;11.00;99.90;;;;;;5084555;28;20195;-89
2021/01/29 10:28:50;;;;;;;31.50;5.80;;;11.10;99.90;;;;;;5073809;28;20627;-90
2021/01/29 10:31:20;;;;;;;31.13;6.90;;;11.10;99.90;;;;;;5075960;28;20650;-90
2021/01/29 10:33:49;;;;;;;31.47;6.77;;;11.10;99.90;;;;;;5075192;28;20179;-88
2021/01/29 10:36:29;;;;;;;41.33;7.53;;;11.10;99.90;;;;;;5075556;28;20194;-88
2021/01/29 10:39:03;;;;;;;26.40;6.33;;;11.10;99.90;;;;;;5075160;28;20608;-88
2021/01/29 10:41:48;;;;;;;26.73;6.27;;;11.10;99.90;;;;;;5075448;28;20220;-88
2021/01/29 10:44:44;;;;;;;29.10;6.53;;;11.10;99.90;;;;;;5075550;28;20695;-87
2021/01/29 10:47:45;;;;;;;27.77;5.87;;;11.20;99.90;;;;;;5059387;28;20266;-88
2021/01/29 10:50:22;;;;;;;29.93;6.53;;;11.20;99.90;;;;;;5074949;28;20201;-86
2021/01/29 10:53:17;;;;;;;21.13;5.43;;;11.20;99.90;;;;;;5075280;28;20174;-88
2021/01/29 10:56:00;;;;;;;29.33;6.17;;;11.40;99.90;;;;;;5075294;28;20226;-88
2021/01/29 10:58:51;;;;;;;27.23;6.63;;;11.30;99.90;;;;;;5111341;28;20198;-89
2021/01/29 11:01:42;;;;;;;36.13;6.83;;;11.30;99.90;;;;;;5112137;28;20217;-87
2021/01/29 11:04:21;;;;;;;24.87;6.57;;;11.30;99.90;;;;;;5110147;28;20167;-90
2021/01/29 11:06:52;;;;;;;22.50;6.47;;;11.30;99.90;;;;;;5075293;28;20184;-89
2021/01/29 11:09:41;;;;;;;24.20;6.27;;;11.30;99.90;;;;;;5096197;28;20622;-90
2021/01/29 11:12:37;;;;;;;27.63;6.20;;;11.60;99.90;;;;;;5096219;28;20164;-89
2021/01/29 11:15:23;;;;;;;24.37;6.23;;;11.50;99.90;;;;;;5061532;28;20178;-87
2021/01/29 11:17:58;;;;;;;26.83;5.97;;;11.50;99.90;;;;;;5095511;28;20171;-89
2021/01/29 11:20:29;;;;;;;25.53;6.30;;;11.50;99.90;;;;;;5129613;27;20220;-87
2021/01/29 11:23:13;;;;;;;21.57;4.83;;;11.50;99.90;;;;;;5094881;28;20175;-89
2021/01/29 11:25:53;;;;;;;21.40;5.17;;;11.50;99.90;;;;;;5129320;27;20265;-87
2021/01/29 11:28:57;;;;;;;24.37;5.70;;;11.50;99.90;;;;;;5108936;28;20167;-88
2021/01/29 11:31:45;;;;;;;23.83;6.03;;;11.50;99.90;;;;;;5094715;28;20171;-89
2021/01/29 11:34:32;;;;;;;23.93;5.40;;;11.50;99.90;;;;;;5112070;28;20186;-88
2021/01/29 11:37:07;;;;;;;28.63;6.17;;;11.70;99.90;;;;;;5113377;28;20542;-92
2021/01/29 11:39:54;;;;;;;17.10;4.50;;;11.60;99.90;;;;;;5111930;28;20274;-89
2021/01/29 11:42:41;;;;;;;18.43;5.57;;;11.60;99.90;;;;;;5111729;28;20194;-88
2021/01/29 11:45:18;;;;;;;17.90;5.00;;;11.70;99.90;;;;;;5114983;28;20202;-87
2021/01/29 11:48:07;;;;;;;17.50;4.43;;;11.70;99.90;;;;;;5117600;28;20515;-92
2021/01/29 11:51:12;;;;;;;13.60;3.60;;;11.50;99.90;;;;;;5116367;28;20206;-89
2021/01/29 11:53:43;;;;;;;13.27;4.13;;;11.40;99.90;;;;;;5116719;28;20626;-89
2021/01/29 11:56:25;;;;;;;16.30;3.93;;;11.40;99.90;;;;;;5115791;28;20175;-88
2021/01/29 11:59:00;;;;;;;17.70;4.87;;;11.40;99.90;;;;;;5078451;28;20305;-89
2021/01/29 12:01:49;;;;;;;21.30;5.57;;;11.50;99.90;;;;;;5078652;28;20514;-88
2021/01/29 12:04:14;;;;;;;21.90;4.90;;;11.60;99.90;;;;;;5078000;28;20160;-90
2021/01/29 12:06:46;;;;;;;17.53;4.27;;;11.60;99.90;;;;;;5079089;28;20195;-89
2021/01/29 12:09:39;;;;;;;17.37;4.40;;;11.60;99.90;;;;;;5092882;28;20231;-88
2021/01/29 12:12:14;;;;;;;19.50;5.57;;;11.60;99.90;;;;;;5100232;28;20748;-87
2021/01/29 12:15:14;;;;;;;16.23;4.67;;;11.50;99.90;;;;;;5100375;28;20244;-91
2021/01/29 12:17:52;;;;;;;17.20;4.60;;;11.60;99.90;;;;;;5058737;28;20187;-88
2021/01/29 12:20:25;;;;;;;22.67;4.73;;;11.70;99.90;;;;;;5118941;28;20281;-88
2021/01/29 12:23:10;;;;;;;18.13;4.80;;;11.70;99.90;;;;;;5099511;28;20266;-87
2021/01/29 12:25:54;;;;;;;16.57;4.67;;;11.70;99.90;;;;;;5102306;28;20522;-89
2021/01/29 12:28:51;;;;;;;16.03;4.47;;;11.80;99.90;;;;;;5118149;27;20185;-87
2021/01/29 12:31:21;;;;;;;16.40;4.87;;;11.70;99.90;;;;;;5119133;27;20170;-88
2021/01/29 12:34:06;;;;;;;17.83;4.37;;;11.60;99.90;;;;;;5117871;27;20170;-88
2021/01/29 12:36:35;;;;;;;18.93;4.40;;;11.80;99.90;;;;;;5118102;27;20173;-89
2021/01/29 12:39:19;;;;;;;18.93;4.97;;;11.80;99.90;;;;;;5117436;27;20267;-90
2021/01/29 12:41:56;;;;;;;22.47;5.57;;;11.80;99.90;;;;;;5119002;27;20174;-88
2021/01/29 12:44:43;;;;;;;16.53;4.37;;;11.80;99.90;;;;;;5119640;27;20390;-88
2021/01/29 12:47:24;;;;;;;13.23;3.83;;;11.60;99.90;;;;;;5118262;27;20229;-87
2021/01/29 12:50:05;;;;;;;9.50;2.80;;;11.50;99.90;;;;;;5117444;27;20261;-89
2021/01/29 12:52:51;;;;;;;9.97;2.30;;;11.30;99.90;;;;;;5118502;27;20179;-88
2021/01/29 12:55:31;;;;;;;7.63;2.20;;;10.70;99.90;;;;;;5119488;27;20701;-87
2021/01/29 12:58:13;;;;;;;4.50;1.47;;;10.50;99.90;;;;;;5112130;28;20174;-91
2021/01/29 13:00:40;;;;;;;6.37;2.30;;;10.30;99.90;;;;;;5114337;28;20194;-90
2021/01/29 13:03:11;;;;;;;6.20;2.23;;;10.50;99.90;;;;;;5114268;28;20175;-89
2021/01/29 13:06:19;;;;;;;5.37;2.00;;;10.50;99.90;;;;;;5113440;28;20178;-88
2021/01/29 13:09:26;;;;;;;9.33;2.20;;;10.60;99.90;;;;;;5108576;28;20182;-92
2021/01/29 13:12:01;;;;;;;12.03;3.03;;;10.60;99.90;;;;;;5130866;27;20239;-90
2021/01/29 13:15:21;;;;;;;10.70;2.97;;;10.80;99.90;;;;;;5097165;28;20532;-89
2021/01/29 13:17:58;;;;;;;11.77;2.73;;;10.90;99.90;;;;;;5064853;28;20209;-90
2021/01/29 13:20:27;;;;;;;6.47;1.90;;;11.10;99.90;;;;;;5097057;28;20555;-88
2021/01/29 13:22:55;;;;;;;15.37;3.67;;;11.10;99.90;;;;;;5096983;28;20542;-89
2021/01/29 13:25:29;;;;;;;8.10;2.50;;;11.10;99.90;;;;;;5096766;28;20662;-90
2021/01/29 13:28:12;;;;;;;13.43;3.03;;;10.90;99.90;;;;;;5113556;28;20623;-90
2021/01/29 13:30:40;;;;;;;15.33;2.97;;;11.00;99.90;;;;;;5113542;28;20198;-89
2021/01/29 13:33:19;;;;;;;12.20;3.50;;;10.90;99.90;;;;;;5115363;28;20174;-91
2021/01/29 13:35:49;;;;;;;13.57;3.37;;;10.90;99.90;;;;;;5114092;28;20246;-91
2021/01/29 13:38:30;;;;;;;15.03;3.23;;;10.80;99.90;;;;;;5113574;28;20382;-88
2021/01/29 13:41:21;;;;;;;14.70;3.17;;;10.70;99.90;;;;;;5115863;28;20174;-91
2021/01/29 13:43:47;;;;;;;12.97;3.33;;;10.60;99.90;;;;;;5115806;28;20173;-92
2021/01/29 13:46:34;;;;;;;16.63;3.20;;;10.50;99.90;;;;;;5114592;28;20167;-94
2021/01/29 13:49:18;;;;;;;10.67;3.10;;;10.40;99.90;;;;;;5116443;28;20166;-91
2021/01/29 13:51:45;;;;;;;14.10;3.30;;;10.30;99.90;;;;;;5115127;28;20189;-92
2021/01/29 13:54:12;;;;;;;12.87;3.73;;;10.50;99.90;;;;;;5115904;27;20183;-93